createdAt,value
2023-03-19T00:00:38.345Z,11.28
2023-03-19T00:03:06.953Z,12.13
2023-03-19T00:05:35.748Z,11.23
2023-03-19T00:08:05.300Z,11.10
2023-03-19T00:10:33.804Z,11.40
2023-03-19T00:13:02.604Z,12.10
2023-03-19T00:15:31.840Z,11.83
2023-03-19T00:18:00.833Z,14.70
2023-03-19T00:20:29.395Z,11.53
2023-03-19T00:22:58.162Z,11.63
2023-03-19T00:25:27.189Z,11.93
2023-03-19T00:27:56.199Z,13.40
2023-03-19T00:30:25.160Z,12.83
2023-03-19T00:32:53.757Z,12.83
2023-03-19T00:35:22.669Z,13.50
2023-03-19T00:37:51.404Z,12.40
2023-03-19T00:40:19.673Z,13.00
2023-03-19T00:42:48.632Z,11.95
2023-03-19T00:45:17.295Z,13.20
2023-03-19T00:47:47.610Z,11.93
2023-03-19T00:50:16.157Z,13.63
2023-03-19T00:52:44.996Z,13.55
2023-03-19T00:55:13.193Z,13.30
2023-03-19T00:57:42.473Z,12.93
2023-03-19T01:00:11.460Z,13.70
2023-03-19T01:02:40.335Z,11.43
2023-03-19T01:05:09.559Z,12.67
2023-03-19T01:07:38.108Z,12.70
2023-03-19T01:10:07.129Z,12.77
2023-03-19T01:12:35.933Z,12.57
2023-03-19T01:15:06.928Z,13.58
2023-03-19T01:17:35.578Z,11.70
2023-03-19T01:20:07.185Z,11.25
2023-03-19T01:22:38.553Z,14.15
2023-03-19T01:27:34.520Z,15.60
2023-03-19T01:30:03.997Z,15.90
2023-03-19T01:32:50.848Z,19.50
2023-03-19T01:35:33.144Z,17.10
2023-03-19T01:38:01.696Z,18.10
2023-03-19T01:40:32.715Z,18.48
2023-03-19T01:43:09.674Z,18.23
2023-03-19T01:45:46.689Z,18.07
2023-03-19T01:48:36.329Z,17.90
2023-03-19T01:51:07.416Z,18.40
2023-03-19T01:53:45.098Z,15.83
2023-03-19T01:56:25.609Z,15.77
2023-03-19T01:59:00.287Z,16.97
2023-03-19T02:01:40.494Z,14.00
2023-03-19T02:04:08.997Z,13.80
2023-03-19T02:06:38.618Z,12.65
2023-03-19T02:09:07.332Z,10.30
2023-03-19T02:11:36.868Z,9.97
2023-03-19T02:14:05.559Z,11.43
2023-03-19T02:16:34.657Z,10.57
2023-03-19T02:19:03.287Z,10.80
2023-03-19T02:21:31.957Z,10.33
2023-03-19T02:24:14.064Z,10.07
2023-03-19T02:26:47.957Z,9.83
2023-03-19T02:29:16.610Z,10.60
2023-03-19T02:31:45.381Z,10.40
2023-03-19T02:34:21.176Z,10.60
2023-03-19T02:36:51.579Z,10.57
2023-03-19T02:39:21.393Z,7.87
2023-03-19T02:41:52.704Z,9.70
2023-03-19T02:44:21.056Z,10.63
2023-03-19T02:46:51.826Z,10.75
2023-03-19T02:49:20.480Z,11.30
2023-03-19T02:51:49.033Z,10.40
2023-03-19T02:54:17.696Z,11.70
2023-03-19T02:56:46.337Z,11.10
2023-03-19T02:59:14.978Z,10.60
2023-03-19T03:01:43.485Z,10.67
2023-03-19T03:04:12.057Z,12.10
2023-03-19T03:06:40.871Z,11.48
2023-03-19T03:09:09.045Z,12.80
2023-03-19T03:11:37.630Z,11.17
2023-03-19T03:14:06.717Z,10.80
2023-03-19T03:16:35.230Z,11.13
2023-03-19T03:19:05.941Z,12.23
2023-03-19T03:21:35.733Z,11.33
2023-03-19T03:24:05.403Z,11.25
2023-03-19T03:26:35.589Z,9.93
2023-03-19T03:29:06.093Z,10.15
2023-03-19T03:31:35.077Z,11.23
2023-03-19T03:34:04.663Z,11.73
2023-03-19T03:36:33.684Z,11.60
2023-03-19T03:39:02.165Z,11.67
2023-03-19T03:41:31.000Z,11.43
2023-03-19T03:43:59.821Z,10.15
2023-03-19T03:46:28.621Z,10.73
2023-03-19T03:48:57.568Z,11.00
2023-03-19T03:51:26.192Z,10.03
2023-03-19T03:53:55.126Z,9.63
2023-03-19T03:56:23.290Z,11.20
2023-03-19T03:58:52.315Z,9.83
2023-03-19T04:01:21.281Z,12.10
2023-03-19T04:03:51.123Z,11.00
2023-03-19T04:06:21.486Z,9.50
2023-03-19T04:08:52.292Z,10.82
2023-03-19T04:11:21.232Z,9.73
2023-03-19T04:13:49.838Z,9.70
2023-03-19T04:16:19.358Z,11.03
2023-03-19T04:18:48.117Z,10.60
2023-03-19T04:21:18.677Z,10.60
2023-03-19T04:23:46.838Z,9.07
2023-03-19T04:26:15.025Z,9.13
2023-03-19T04:28:43.508Z,10.47
2023-03-19T04:31:12.500Z,10.43
2023-03-19T04:33:43.285Z,10.00
2023-03-19T04:36:11.909Z,11.40
2023-03-19T04:38:40.673Z,10.13
2023-03-19T04:41:08.969Z,10.07
2023-03-19T04:43:39.149Z,9.58
2023-03-19T04:46:08.241Z,9.37
2023-03-19T04:48:38.703Z,9.70
2023-03-19T04:51:09.222Z,8.28
2023-03-19T04:53:38.692Z,9.40
2023-03-19T04:56:07.958Z,10.17
2023-03-19T04:58:36.583Z,9.33
2023-03-19T05:01:06.949Z,8.88
2023-03-19T05:03:42.856Z,9.77
2023-03-19T05:06:12.188Z,10.07
2023-03-19T05:08:40.760Z,9.70
2023-03-19T05:11:09.185Z,8.60
2023-03-19T05:13:39.091Z,10.37
2023-03-19T05:16:07.583Z,7.93
2023-03-19T05:18:38.917Z,8.53
2023-03-19T05:21:07.038Z,9.73
2023-03-19T05:23:35.680Z,9.40
2023-03-19T05:26:06.650Z,10.47
2023-03-19T05:28:45.756Z,9.33
2023-03-19T05:31:15.447Z,8.43
2023-03-19T05:33:45.822Z,8.37
2023-03-19T05:36:20.655Z,9.03
2023-03-19T05:38:51.107Z,8.87
2023-03-19T05:41:22.638Z,8.70
2023-03-19T05:43:52.906Z,9.75
2023-03-19T05:46:28.675Z,10.23
2023-03-19T05:48:58.287Z,10.17
2023-03-19T05:51:27.159Z,10.00
2023-03-19T05:53:59.368Z,9.33
2023-03-19T05:56:35.594Z,9.17
2023-03-19T05:59:08.708Z,8.87
2023-03-19T06:01:39.264Z,9.75
2023-03-19T06:04:08.028Z,9.50
2023-03-19T06:06:38.758Z,8.47
2023-03-19T06:09:07.534Z,9.10
2023-03-19T06:11:40.930Z,10.20
2023-03-19T06:14:27.479Z,10.57
2023-03-19T06:16:57.711Z,9.30
2023-03-19T06:19:26.267Z,9.50
2023-03-19T06:21:55.145Z,9.75
2023-03-19T06:24:23.681Z,9.40
2023-03-19T06:26:52.266Z,9.53
2023-03-19T06:29:20.901Z,10.40
2023-03-19T06:31:51.174Z,10.37
2023-03-19T06:34:23.830Z,9.57
2023-03-19T06:36:53.727Z,9.53
2023-03-19T06:39:21.918Z,8.83
2023-03-19T06:41:50.427Z,10.03
2023-03-19T06:44:20.774Z,9.73
2023-03-19T06:46:49.313Z,10.40
2023-03-19T06:49:17.945Z,10.53
2023-03-19T06:51:46.751Z,10.63
2023-03-19T06:54:15.544Z,9.80
2023-03-19T06:56:44.832Z,8.83
2023-03-19T06:59:13.140Z,8.53
2023-03-19T07:01:42.276Z,7.63
2023-03-19T07:04:11.510Z,8.65
2023-03-19T07:06:40.043Z,7.77
2023-03-19T07:09:08.509Z,8.07
2023-03-19T07:11:37.676Z,8.45
2023-03-19T07:14:06.202Z,8.50
2023-03-19T07:16:35.355Z,6.30
2023-03-19T07:19:03.885Z,7.03
2023-03-19T07:21:32.671Z,7.15
2023-03-19T07:24:01.452Z,6.87
2023-03-19T07:26:30.556Z,7.60
2023-03-19T07:28:59.129Z,7.17
2023-03-19T07:31:27.648Z,6.67
2023-03-19T07:33:56.849Z,6.85
2023-03-19T07:36:25.381Z,8.00
2023-03-19T07:38:54.137Z,6.15
2023-03-19T07:41:22.343Z,6.67
2023-03-19T07:43:50.805Z,7.27
2023-03-19T07:46:19.140Z,7.53
2023-03-19T07:48:47.689Z,6.47
2023-03-19T07:51:16.148Z,6.80
2023-03-19T07:53:45.896Z,7.00
2023-03-19T07:56:14.360Z,5.67
2023-03-19T07:58:42.813Z,6.10
2023-03-19T08:01:11.086Z,6.03
2023-03-19T08:03:40.100Z,6.65
2023-03-19T08:06:08.636Z,5.83
2023-03-19T08:08:37.183Z,6.67
2023-03-19T08:11:06.702Z,5.90
2023-03-19T08:13:46.838Z,5.72
2023-03-19T08:16:15.269Z,6.37
2023-03-19T08:18:51.306Z,5.23
2023-03-19T08:21:33.330Z,4.97
2023-03-19T08:24:03.801Z,5.13
2023-03-19T08:26:32.943Z,5.97
2023-03-19T08:29:01.801Z,5.90
2023-03-19T08:31:32.636Z,4.83
2023-03-19T08:34:04.197Z,5.62
2023-03-19T08:36:34.810Z,5.07
2023-03-19T08:39:04.094Z,4.40
2023-03-19T08:41:37.893Z,5.80
2023-03-19T08:44:14.596Z,4.97
2023-03-19T08:46:44.155Z,5.20
2023-03-19T08:49:12.329Z,4.87
2023-03-19T08:51:54.734Z,5.60
2023-03-19T08:54:23.888Z,4.93
2023-03-19T08:56:55.524Z,5.17
2023-03-19T08:59:25.043Z,4.97
2023-03-19T09:01:55.845Z,4.67
2023-03-19T09:04:24.316Z,6.23
2023-03-19T09:06:53.690Z,5.40
2023-03-19T09:09:23.281Z,5.83
2023-03-19T09:11:51.754Z,6.53
2023-03-19T09:14:26.195Z,5.87
2023-03-19T09:16:55.558Z,5.70
2023-03-19T09:19:23.919Z,5.27
2023-03-19T09:21:52.522Z,5.20
2023-03-19T09:24:20.714Z,4.90
2023-03-19T09:26:49.530Z,4.87
2023-03-19T09:29:17.973Z,5.47
2023-03-19T09:31:49.531Z,4.97
2023-03-19T09:34:18.533Z,4.37
2023-03-19T09:36:48.892Z,3.90
2023-03-19T09:39:18.589Z,5.05
2023-03-19T09:41:56.040Z,4.60
2023-03-19T09:44:31.309Z,5.40
2023-03-19T09:47:04.469Z,4.97
2023-03-19T09:49:34.800Z,4.60
2023-03-19T09:52:22.228Z,4.73
2023-03-19T09:54:58.308Z,4.73
2023-03-19T09:57:28.484Z,5.03
2023-03-19T09:59:56.860Z,4.87
2023-03-19T10:02:26.867Z,4.80
2023-03-19T10:04:58.931Z,5.35
2023-03-19T10:07:47.356Z,5.00
2023-03-19T10:10:32.604Z,4.10
2023-03-19T10:13:20.765Z,4.97
2023-03-19T10:15:50.812Z,4.30
2023-03-19T10:18:20.393Z,4.80
2023-03-19T10:20:53.377Z,5.33
2023-03-19T10:23:23.657Z,4.13
2023-03-19T10:25:53.179Z,4.10
2023-03-19T10:28:22.276Z,4.47
2023-03-19T10:30:57.706Z,4.77
2023-03-19T10:33:29.146Z,3.97
2023-03-19T10:35:59.448Z,4.80
2023-03-19T10:38:29.190Z,3.80
2023-03-19T10:41:00.551Z,4.72
2023-03-19T10:43:30.668Z,4.15
2023-03-19T10:45:58.966Z,4.43
2023-03-19T10:48:28.388Z,4.50
2023-03-19T10:51:04.891Z,4.22
2023-03-19T10:53:38.108Z,4.33
2023-03-19T10:56:08.000Z,5.00
2023-03-19T10:58:37.399Z,4.97
2023-03-19T11:01:07.539Z,4.10
2023-03-19T11:03:37.875Z,4.83
2023-03-19T11:06:26.645Z,3.72
2023-03-19T11:08:59.812Z,3.73
2023-03-19T11:11:29.773Z,3.70
2023-03-19T11:13:58.494Z,2.73
2023-03-19T11:16:27.081Z,3.07
2023-03-19T11:18:55.570Z,2.77
2023-03-19T11:21:25.609Z,2.80
2023-03-19T11:23:57.950Z,2.73
2023-03-19T11:26:28.037Z,3.30
2023-03-19T11:28:57.906Z,2.57
2023-03-19T11:31:32.280Z,3.10
2023-03-19T11:34:17.924Z,2.92
2023-03-19T11:36:59.924Z,3.27
2023-03-19T11:39:30.821Z,3.00
2023-03-19T11:42:07.000Z,3.35
2023-03-19T11:44:37.546Z,2.77
2023-03-19T11:47:27.806Z,3.23
2023-03-19T11:50:01.338Z,2.72
2023-03-19T11:52:48.744Z,3.10
2023-03-19T11:55:18.554Z,3.10
2023-03-19T11:57:48.975Z,3.20
2023-03-19T12:00:35.221Z,2.50
2023-03-19T12:03:14.372Z,2.93
2023-03-19T12:05:44.590Z,3.37
2023-03-19T12:08:26.638Z,2.47
2023-03-19T12:10:57.318Z,2.30
2023-03-19T12:13:27.483Z,2.72
2023-03-19T12:15:57.487Z,2.70
2023-03-19T12:18:42.893Z,3.00
2023-03-19T12:21:13.383Z,2.37
2023-03-19T12:23:59.942Z,2.50
2023-03-19T12:26:29.929Z,2.43
2023-03-19T12:29:12.541Z,3.20
2023-03-19T12:31:42.517Z,2.23
2023-03-19T12:34:16.490Z,2.97
2023-03-19T12:36:47.350Z,2.60
2023-03-19T12:39:29.801Z,3.23
2023-03-19T12:41:59.024Z,2.60
2023-03-19T12:44:35.415Z,2.70
2023-03-19T12:47:05.416Z,2.80
2023-03-19T12:49:36.301Z,2.90
2023-03-19T12:52:09.516Z,3.12
2023-03-19T12:54:39.512Z,2.77
2023-03-19T12:57:14.882Z,3.47
2023-03-19T12:59:50.862Z,2.87
2023-03-19T13:02:37.165Z,2.83
2023-03-19T13:05:25.091Z,3.03
2023-03-19T13:07:58.010Z,2.57
2023-03-19T13:10:27.352Z,2.80
2023-03-19T13:12:56.972Z,2.77
2023-03-19T13:15:29.947Z,2.53
2023-03-19T13:17:59.931Z,2.57
2023-03-19T13:20:29.679Z,2.77
2023-03-19T13:22:59.486Z,2.47
2023-03-19T13:25:31.968Z,3.00
2023-03-19T13:28:00.459Z,2.87
2023-03-19T13:30:29.879Z,2.47
2023-03-19T13:33:05.425Z,2.97
2023-03-19T13:35:46.849Z,3.53
2023-03-19T13:38:16.853Z,3.37
2023-03-19T13:40:50.308Z,3.50
2023-03-19T13:43:32.767Z,2.93
2023-03-19T13:46:17.047Z,3.17
2023-03-19T13:48:49.825Z,2.53
2023-03-19T13:51:22.724Z,2.70
2023-03-19T13:54:11.245Z,2.53
2023-03-19T13:56:58.553Z,2.87
2023-03-19T13:59:28.476Z,2.60
2023-03-19T14:01:57.604Z,2.60
2023-03-19T14:04:28.164Z,3.13
2023-03-19T14:06:57.793Z,2.53
2023-03-19T14:09:30.641Z,2.50
2023-03-19T14:12:17.329Z,3.07
2023-03-19T14:14:47.332Z,2.70
2023-03-19T14:17:17.491Z,2.63
2023-03-19T14:19:46.289Z,2.77
2023-03-19T14:22:19.436Z,2.43
2023-03-19T14:24:58.491Z,2.20
2023-03-19T14:27:31.512Z,2.30
2023-03-19T14:30:01.511Z,2.50
2023-03-19T14:32:31.423Z,2.90
2023-03-19T14:35:00.212Z,2.23
2023-03-19T14:37:39.484Z,3.13
2023-03-19T14:40:12.420Z,2.57
2023-03-19T14:42:58.942Z,2.70
2023-03-19T14:45:31.941Z,2.30
2023-03-19T14:48:06.014Z,2.33
2023-03-19T14:50:36.242Z,2.33
2023-03-19T14:53:06.777Z,2.65
2023-03-19T14:55:37.336Z,2.47
2023-03-19T14:58:06.049Z,2.58
2023-03-19T15:00:42.360Z,2.20
2023-03-19T15:03:28.879Z,2.77
2023-03-19T15:05:58.942Z,2.57
2023-03-19T15:08:28.037Z,2.03
2023-03-19T15:11:02.336Z,2.40
2023-03-19T15:13:35.204Z,2.93
2023-03-19T15:16:22.027Z,2.57
2023-03-19T15:18:50.650Z,2.47
2023-03-19T15:21:18.991Z,3.30
2023-03-19T15:23:48.110Z,2.63
2023-03-19T15:26:18.479Z,2.80
2023-03-19T15:28:53.747Z,2.10
2023-03-19T15:31:36.631Z,2.07
2023-03-19T15:33:52.916Z,3.05
2023-03-19T15:36:23.126Z,1.93
2023-03-19T15:38:55.874Z,2.97
2023-03-19T15:41:25.620Z,2.67
2023-03-19T15:43:54.481Z,2.50
2023-03-19T15:46:25.474Z,2.35
2023-03-19T15:49:10.654Z,2.47
2023-03-19T15:51:40.002Z,3.03
2023-03-19T15:54:09.150Z,2.70
2023-03-19T15:56:39.389Z,3.20
2023-03-19T15:59:11.066Z,2.20
2023-03-19T16:01:47.748Z,3.07
2023-03-19T16:04:21.187Z,3.33
2023-03-19T16:06:50.671Z,3.73
2023-03-19T16:09:33.028Z,3.07
2023-03-19T16:12:02.023Z,3.43
2023-03-19T16:14:32.010Z,3.83
2023-03-19T16:17:04.501Z,4.03
2023-03-19T16:19:36.937Z,3.70
2023-03-19T16:22:06.691Z,4.43
2023-03-19T16:24:41.344Z,3.63
2023-03-19T16:27:14.098Z,3.17
2023-03-19T16:29:43.997Z,3.33
2023-03-19T16:32:14.268Z,3.07
2023-03-19T16:34:47.063Z,2.83
2023-03-19T16:37:31.037Z,2.87
2023-03-19T16:40:01.135Z,3.43
2023-03-19T16:42:37.565Z,3.00
2023-03-19T16:45:16.580Z,6.03
2023-03-19T16:47:54.013Z,4.83
2023-03-19T16:50:23.508Z,4.33
2023-03-19T16:52:52.028Z,3.53
2023-03-19T16:55:22.161Z,4.17
2023-03-19T16:57:52.442Z,3.62
2023-03-19T17:00:21.056Z,3.63
2023-03-19T17:02:49.826Z,3.40
2023-03-19T17:05:18.202Z,5.03
2023-03-19T17:07:46.698Z,3.63
2023-03-19T17:10:17.272Z,3.17
2023-03-19T17:12:47.892Z,3.50
2023-03-19T17:15:24.511Z,3.83
2023-03-19T17:17:53.039Z,3.93
2023-03-19T17:20:22.809Z,3.20
2023-03-19T17:22:52.532Z,3.72
2023-03-19T17:25:21.245Z,3.60
2023-03-19T17:27:49.700Z,3.10
2023-03-19T17:30:18.334Z,3.57
2023-03-19T17:32:49.352Z,3.50
2023-03-19T17:35:18.610Z,3.10
2023-03-19T17:37:47.552Z,3.37
2023-03-19T17:40:17.976Z,3.00
2023-03-19T17:42:46.898Z,2.23
2023-03-19T17:45:17.193Z,3.10
2023-03-19T17:47:46.875Z,2.70
2023-03-19T17:50:19.601Z,2.43
2023-03-19T17:52:49.095Z,2.47
2023-03-19T17:55:18.793Z,3.50
2023-03-19T17:57:47.310Z,3.23
2023-03-19T18:00:16.444Z,3.43
2023-03-19T18:02:46.614Z,3.00
2023-03-19T18:05:16.493Z,3.73
2023-03-19T18:07:45.750Z,2.40
2023-03-19T18:10:21.672Z,2.80
2023-03-19T18:12:50.104Z,2.70
2023-03-19T18:15:18.816Z,2.77
2023-03-19T18:17:48.976Z,2.63
2023-03-19T18:20:19.444Z,2.83
2023-03-19T18:22:47.627Z,2.90
2023-03-19T18:25:17.350Z,2.27
2023-03-19T18:27:46.296Z,2.37
2023-03-19T18:30:15.994Z,2.20
2023-03-19T18:32:47.036Z,2.60
2023-03-19T18:35:18.101Z,2.30
2023-03-19T18:37:50.930Z,3.30
2023-03-19T18:40:21.069Z,4.03
2023-03-19T18:42:50.001Z,3.02
2023-03-19T18:45:19.216Z,3.00
2023-03-19T18:47:48.644Z,4.27
2023-03-19T18:50:18.725Z,6.10
2023-03-19T18:52:48.124Z,5.60
2023-03-19T18:55:17.245Z,4.37
2023-03-19T18:57:53.514Z,4.05
2023-03-19T19:00:22.310Z,3.70
2023-03-19T19:02:50.958Z,4.27
2023-03-19T19:05:22.286Z,4.47
2023-03-19T19:07:51.531Z,5.03
2023-03-19T19:10:19.775Z,4.97
2023-03-19T19:12:52.301Z,3.87
2023-03-19T19:17:47.903Z,4.42
2023-03-19T19:20:17.513Z,5.27
2023-03-19T19:22:45.956Z,5.50
2023-03-19T19:25:19.468Z,5.20
2023-03-19T19:27:50.541Z,5.53
2023-03-19T19:30:20.284Z,5.40
2023-03-19T19:32:49.153Z,5.75
2023-03-19T19:35:26.051Z,7.83
2023-03-19T19:37:52.886Z,9.03
2023-03-19T19:40:22.538Z,9.53
2023-03-19T19:42:52.964Z,8.40
2023-03-19T19:45:28.996Z,6.07
2023-03-19T19:47:57.817Z,7.17
2023-03-19T19:50:27.723Z,8.77
2023-03-19T19:52:56.657Z,8.70
2023-03-19T19:55:27.176Z,8.57
2023-03-19T19:57:56.929Z,7.83
2023-03-19T20:00:26.930Z,8.60
2023-03-19T20:02:56.168Z,8.20
2023-03-19T20:05:26.171Z,7.63
2023-03-19T20:07:55.719Z,8.77
2023-03-19T20:10:25.533Z,8.50
2023-03-19T20:12:55.543Z,9.30
2023-03-19T20:15:29.569Z,6.60
2023-03-19T20:18:00.805Z,11.30
2023-03-19T20:22:57.726Z,12.23
2023-03-19T20:25:27.857Z,11.63
2023-03-19T20:27:58.158Z,11.68
2023-03-19T20:30:31.305Z,13.03
2023-03-19T20:33:04.475Z,13.47
2023-03-19T20:35:34.819Z,13.25
2023-03-19T20:38:04.649Z,12.47
2023-03-19T20:40:35.180Z,12.88
2023-03-19T20:43:03.865Z,12.33
2023-03-19T20:45:36.640Z,13.33
2023-03-19T20:48:05.638Z,13.70
2023-03-19T20:50:34.728Z,13.03
2023-03-19T20:53:03.992Z,11.45
2023-03-19T20:55:34.306Z,12.40
2023-03-19T20:58:06.365Z,12.03
2023-03-19T21:00:34.836Z,13.87
2023-03-19T21:03:03.700Z,15.20
2023-03-19T21:05:37.026Z,14.30
2023-03-19T21:08:08.248Z,14.57
2023-03-19T21:10:40.873Z,14.30
2023-03-19T21:13:17.769Z,14.27
2023-03-19T21:15:46.885Z,15.77
2023-03-19T21:18:15.247Z,13.87
2023-03-19T21:20:45.269Z,13.27
2023-03-19T21:23:20.942Z,14.47
2023-03-19T21:25:50.422Z,14.40
2023-03-19T21:28:34.353Z,13.13
2023-03-19T21:31:06.390Z,12.82
2023-03-19T21:33:35.961Z,13.83
2023-03-19T21:36:09.906Z,15.13
2023-03-19T21:38:38.487Z,14.87
2023-03-19T21:41:17.933Z,14.83
2023-03-19T21:43:53.853Z,13.83
2023-03-19T21:46:25.130Z,16.13
2023-03-19T21:48:56.247Z,16.07
2023-03-19T21:51:25.294Z,16.60
2023-03-19T21:53:56.501Z,14.97
2023-03-19T21:56:33.948Z,14.85
2023-03-19T21:59:03.706Z,14.80
2023-03-19T22:01:32.457Z,15.70
2023-03-19T22:04:02.222Z,16.00
2023-03-19T22:06:30.835Z,13.03
2023-03-19T22:09:00.305Z,14.00
2023-03-19T22:11:30.804Z,13.83
2023-03-19T22:14:19.041Z,13.50
2023-03-19T22:16:52.065Z,15.53
2023-03-19T22:19:19.590Z,13.23
2023-03-19T22:21:49.334Z,13.37
2023-03-19T22:24:17.658Z,13.73
2023-03-19T22:26:49.578Z,14.10
2023-03-19T22:29:20.194Z,13.63
2023-03-19T22:31:49.821Z,14.00
2023-03-19T22:34:20.013Z,13.30
2023-03-19T22:36:48.977Z,14.83
2023-03-19T22:39:26.562Z,15.05
2023-03-19T22:41:55.217Z,12.43
2023-03-19T22:44:28.189Z,12.83
2023-03-19T22:46:57.858Z,13.68
2023-03-19T22:49:27.966Z,14.07
2023-03-19T22:51:57.638Z,13.15
2023-03-19T22:54:26.260Z,12.30
2023-03-19T22:56:54.798Z,12.83
2023-03-19T22:59:23.076Z,12.93
2023-03-19T23:01:51.618Z,13.73
2023-03-19T23:04:21.985Z,13.53
2023-03-19T23:06:51.449Z,13.28
2023-03-19T23:09:21.005Z,13.37
2023-03-19T23:11:49.533Z,14.10
2023-03-19T23:14:29.055Z,14.07
2023-03-19T23:16:48.636Z,13.47
2023-03-19T23:19:18.624Z,12.47
2023-03-19T23:21:48.880Z,14.20
2023-03-19T23:24:18.589Z,14.00
2023-03-19T23:26:48.637Z,13.70
2023-03-19T23:29:27.901Z,13.97
2023-03-19T23:31:58.311Z,13.20
2023-03-19T23:34:27.114Z,13.13
2023-03-19T23:36:56.651Z,13.03
2023-03-19T23:39:25.529Z,15.03
2023-03-19T23:41:55.835Z,13.93
2023-03-19T23:44:24.388Z,13.87
2023-03-19T23:46:53.037Z,15.57
2023-03-19T23:49:22.986Z,13.40
2023-03-19T23:51:51.506Z,13.20
2023-03-19T23:54:29.979Z,12.90
2023-03-19T23:56:59.933Z,12.30
2023-03-19T23:59:30.054Z,13.53
